Kohju — H3XI — position and weather

sailwx.info

Track history (hours):
 
Tides and Currents Weather Stations Pressure Air Temp Water Temp Dewpoint Dewpoint Depression Visibility Wind Speed Wind Dir Waves Ship Positions

Kohju

Last reported at 2016-Apr-10 17:32 UTC. Time now 2016-Apr-30 20:43 UTC.
Position N 10°30' W 014°45'.
Warning: this ship's position is 20 days out of date.

Length 289 m; draft 9.7 m.

Type: Cargo ship. MMSI: 357349000.

Date/timePositionNaut miles runAvg speedWind from/ knotsBaromVisibWave heightAir tempDewpointWater temp
2016-Apr-10 17:32N 10°30' W 014°45'9 0.3
2016-Apr-09 07:18N 10°21' W 014°47'1114.8
2016-Apr-09 06:33N 10°10' W 014°50'1414.2
2016-Apr-09 05:33N 09°56' W 014°52'1413.6
2016-Apr-09 04:33N 09°43' W 014°53'1513.0
2016-Apr-09 03:25N 09°28' W 014°56'1112.3
2016-Apr-09 02:33N 09°18' W 014°57'1212.2
2016-Apr-09 01:33N 09°06' W 014°59'2612.0
2016-Apr-08 23:24N 08°41' W 014°50'1113.2
2016-Apr-08 22:33N 08°32' W 014°44'1313.0
2016-Apr-08 21:33N 08°21' W 014°37'  
Track history (hours):
 
Tides and Currents Weather Stations Pressure Air Temp Water Temp Dewpoint Dewpoint Depression Visibility Wind Speed Wind Dir Waves Ship Positions

Kohju

Last reported at 2016-Apr-10 17:32 UTC. Time now 2016-Apr-30 20:43 UTC.
Position N 10°30' W 014°45'.
Warning: this ship's position is 20 days out of date.

Length 289 m; draft 9.7 m.

Type: Cargo ship. MMSI: 357349000.

Date/timePositionNaut miles runAvg speedWind from/ knotsBaromVisibWave heightAir tempDewpointWater temp
2016-Apr-10 17:32N 10°30' W 014°45'9 0.3
2016-Apr-09 07:18N 10°21' W 014°47'1114.8
2016-Apr-09 06:33N 10°10' W 014°50'1414.2
2016-Apr-09 05:33N 09°56' W 014°52'1413.6
2016-Apr-09 04:33N 09°43' W 014°53'1513.0
2016-Apr-09 03:25N 09°28' W 014°56'1112.3
2016-Apr-09 02:33N 09°18' W 014°57'1212.2
2016-Apr-09 01:33N 09°06' W 014°59'2612.0
2016-Apr-08 23:24N 08°41' W 014°50'1113.2
2016-Apr-08 22:33N 08°32' W 014°44'1313.0
2016-Apr-08 21:33N 08°21' W 014°37'  

Dump ship's entire track history